sensor_id;sensor_type;location;lat;lon;timestamp;pressure;altitude;pressure_sealevel;temperature;humidity
37776;BME280;23614;33.774;130.514;2022-09-23T00:00:45;100547.16;;;28.48;42.19
37776;BME280;23614;33.774;130.514;2022-09-23T00:03:11;100549.44;;;28.39;41.60
37776;BME280;23614;33.774;130.514;2022-09-23T00:05:37;100555.71;;;28.20;42.21
37776;BME280;23614;33.774;130.514;2022-09-23T00:08:03;100556.30;;;28.35;41.69
37776;BME280;23614;33.774;130.514;2022-09-23T00:10:30;100553.48;;;28.32;40.98
37776;BME280;23614;33.774;130.514;2022-09-23T00:12:55;100542.84;;;28.71;41.00
37776;BME280;23614;33.774;130.514;2022-09-23T00:15:21;100536.71;;;28.49;41.09
37776;BME280;23614;33.774;130.514;2022-09-23T00:17:47;100535.54;;;28.60;40.94
37776;BME280;23614;33.774;130.514;2022-09-23T00:20:13;100530.27;;;28.62;41.11
37776;BME280;23614;33.774;130.514;2022-09-23T00:22:39;100527.91;;;28.91;40.74
37776;BME280;23614;33.774;130.514;2022-09-23T00:25:07;100528.40;;;29.20;39.91
37776;BME280;23614;33.774;130.514;2022-09-23T00:27:31;100524.67;;;28.95;40.55
37776;BME280;23614;33.774;130.514;2022-09-23T00:29:57;100518.69;;;28.94;40.77
37776;BME280;23614;33.774;130.514;2022-09-23T00:32:23;100521.00;;;29.14;40.46
37776;BME280;23614;33.774;130.514;2022-09-23T00:34:49;100521.57;;;29.12;40.66
37776;BME280;23614;33.774;130.514;2022-09-23T00:37:15;100517.74;;;29.41;40.04
37776;BME280;23614;33.774;130.514;2022-09-23T00:39:41;100515.61;;;29.31;40.13
37776;BME280;23614;33.774;130.514;2022-09-23T00:42:08;100517.54;;;29.40;39.76
37776;BME280;23614;33.774;130.514;2022-09-23T00:44:43;100526.37;;;29.19;40.02
37776;BME280;23614;33.774;130.514;2022-09-23T00:46:58;100534.90;;;29.51;39.58
37776;BME280;23614;33.774;130.514;2022-09-23T00:49:28;100533.76;;;29.21;40.12
37776;BME280;23614;33.774;130.514;2022-09-23T00:51:54;100531.70;;;29.12;40.75
37776;BME280;23614;33.774;130.514;2022-09-23T00:54:18;100523.18;;;29.52;39.91
37776;BME280;23614;33.774;130.514;2022-09-23T00:56:43;100520.01;;;29.43;39.71
37776;BME280;23614;33.774;130.514;2022-09-23T00:59:09;100523.46;;;29.53;39.74
37776;BME280;23614;33.774;130.514;2022-09-23T01:01:35;100522.13;;;29.48;39.91
37776;BME280;23614;33.774;130.514;2022-09-23T01:04:01;100520.99;;;29.58;39.63
37776;BME280;23614;33.774;130.514;2022-09-23T01:06:27;100514.87;;;29.43;39.34
37776;BME280;23614;33.774;130.514;2022-09-23T01:08:53;100516.20;;;29.36;39.89
37776;BME280;23614;33.774;130.514;2022-09-23T01:11:36;100517.68;;;29.06;40.03
37776;BME280;23614;33.774;130.514;2022-09-23T01:13:53;100513.04;;;28.92;40.69
37776;BME280;23614;33.774;130.514;2022-09-23T01:16:17;100514.77;;;29.13;40.05
37776;BME280;23614;33.774;130.514;2022-09-23T01:18:43;100511.26;;;29.21;40.21
37776;BME280;23614;33.774;130.514;2022-09-23T01:21:12;100512.90;;;29.60;39.94
37776;BME280;23614;33.774;130.514;2022-09-23T01:23:55;100512.68;;;29.82;39.53
37776;BME280;23614;33.774;130.514;2022-09-23T01:26:08;100509.34;;;29.63;40.15
37776;BME280;23614;33.774;130.514;2022-09-23T01:28:38;100504.15;;;29.26;40.57
37776;BME280;23614;33.774;130.514;2022-09-23T01:30:51;100504.69;;;29.07;41.04
37776;BME280;23614;33.774;130.514;2022-09-23T01:33:18;100509.42;;;29.28;40.89
37776;BME280;23614;33.774;130.514;2022-09-23T01:35:46;100507.11;;;29.55;40.80
37776;BME280;23614;33.774;130.514;2022-09-23T01:38:13;100504.81;;;29.59;40.53
37776;BME280;23614;33.774;130.514;2022-09-23T01:40:36;100497.12;;;29.70;39.93
37776;BME280;23614;33.774;130.514;2022-09-23T01:43:00;100502.99;;;29.78;40.01
37776;BME280;23614;33.774;130.514;2022-09-23T01:45:28;100512.39;;;29.68;39.88
37776;BME280;23614;33.774;130.514;2022-09-23T01:47:52;100515.60;;;29.55;40.19
37776;BME280;23614;33.774;130.514;2022-09-23T01:50:18;100513.12;;;29.61;40.47
37776;BME280;23614;33.774;130.514;2022-09-23T01:52:44;100507.03;;;29.61;40.46
37776;BME280;23614;33.774;130.514;2022-09-23T01:55:10;100495.38;;;29.52;40.63
37776;BME280;23614;33.774;130.514;2022-09-23T01:58:05;100495.04;;;29.48;40.50
37776;BME280;23614;33.774;130.514;2022-09-23T02:00:03;100496.06;;;29.55;40.70
37776;BME280;23614;33.774;130.514;2022-09-23T02:02:29;100500.79;;;29.37;41.01
37776;BME280;23614;33.774;130.514;2022-09-23T02:04:55;100500.64;;;29.77;40.49
37776;BME280;23614;33.774;130.514;2022-09-23T02:07:21;100497.42;;;29.74;40.29
37776;BME280;23614;33.774;130.514;2022-09-23T02:09:45;100495.94;;;29.23;41.16
37776;BME280;23614;33.774;130.514;2022-09-23T02:12:14;100497.83;;;29.67;40.37
37776;BME280;23614;33.774;130.514;2022-09-23T02:14:40;100497.32;;;29.62;40.69
37776;BME280;23614;33.774;130.514;2022-09-23T02:17:04;100495.59;;;29.78;39.95
37776;BME280;23614;33.774;130.514;2022-09-23T02:19:29;100498.22;;;29.59;40.16
37776;BME280;23614;33.774;130.514;2022-09-23T02:21:56;100504.15;;;29.45;39.98
37776;BME280;23614;33.774;130.514;2022-09-23T02:24:21;100509.74;;;29.66;39.79
37776;BME280;23614;33.774;130.514;2022-09-23T02:26:48;100515.71;;;29.73;39.19
37776;BME280;23614;33.774;130.514;2022-09-23T02:29:19;100514.79;;;29.74;39.65
37776;BME280;23614;33.774;130.514;2022-09-23T02:31:40;100510.50;;;27.83;42.44
37776;BME280;23614;33.774;130.514;2022-09-23T02:34:11;100504.00;;;29.48;40.43
37776;BME280;23614;33.774;130.514;2022-09-23T02:36:31;100505.34;;;29.75;40.39
37776;BME280;23614;33.774;130.514;2022-09-23T02:38:58;100511.74;;;29.29;40.96
37776;BME280;23614;33.774;130.514;2022-09-23T02:41:27;100510.35;;;30.09;39.91
37776;BME280;23614;33.774;130.514;2022-09-23T02:43:50;100507.81;;;29.95;39.45
37776;BME280;23614;33.774;130.514;2022-09-23T02:46:13;100516.31;;;29.83;39.66
37776;BME280;23614;33.774;130.514;2022-09-23T02:48:42;100521.53;;;29.76;39.99
37776;BME280;23614;33.774;130.514;2022-09-23T02:51:05;100524.37;;;29.34;40.60
37776;BME280;23614;33.774;130.514;2022-09-23T02:53:31;100526.76;;;29.43;40.48
37776;BME280;23614;33.774;130.514;2022-09-23T02:55:58;100523.12;;;29.68;40.60
37776;BME280;23614;33.774;130.514;2022-09-23T02:58:23;100514.53;;;29.94;40.56
37776;BME280;23614;33.774;130.514;2022-09-23T03:00:58;100506.27;;;30.07;40.40
37776;BME280;23614;33.774;130.514;2022-09-23T03:03:27;100512.42;;;29.38;41.64
37776;BME280;23614;33.774;130.514;2022-09-23T03:05:47;100513.85;;;29.06;41.82
37776;BME280;23614;33.774;130.514;2022-09-23T03:08:17;100513.70;;;29.02;42.09
37776;BME280;23614;33.774;130.514;2022-09-23T03:10:40;100518.00;;;29.67;41.18
37776;BME280;23614;33.774;130.514;2022-09-23T03:13:06;100512.45;;;29.40;41.58
37776;BME280;23614;33.774;130.514;2022-09-23T03:15:32;100514.58;;;29.94;40.52
37776;BME280;23614;33.774;130.514;2022-09-23T03:17:56;100515.19;;;29.00;41.29
37776;BME280;23614;33.774;130.514;2022-09-23T03:20:22;100511.47;;;28.25;42.53
37776;BME280;23614;33.774;130.514;2022-09-23T03:22:47;100511.03;;;28.68;42.31
37776;BME280;23614;33.774;130.514;2022-09-23T03:25:13;100512.03;;;27.70;43.27
37776;BME280;23614;33.774;130.514;2022-09-23T03:27:36;100512.95;;;27.32;43.85
37776;BME280;23614;33.774;130.514;2022-09-23T03:30:01;100512.26;;;26.97;44.29
37776;BME280;23614;33.774;130.514;2022-09-23T03:32:28;100502.20;;;28.60;41.53
37776;BME280;23614;33.774;130.514;2022-09-23T03:34:54;100497.49;;;28.72;40.78
37776;BME280;23614;33.774;130.514;2022-09-23T03:37:25;100496.74;;;28.80;40.60
37776;BME280;23614;33.774;130.514;2022-09-23T03:39:50;100504.32;;;29.01;40.06
37776;BME280;23614;33.774;130.514;2022-09-23T03:42:15;100505.77;;;29.00;39.27
37776;BME280;23614;33.774;130.514;2022-09-23T03:44:37;100505.86;;;29.55;38.61
37776;BME280;23614;33.774;130.514;2022-09-23T03:47:03;100499.98;;;29.47;38.41
37776;BME280;23614;33.774;130.514;2022-09-23T03:49:34;100498.45;;;29.15;39.13
37776;BME280;23614;33.774;130.514;2022-09-23T03:51:56;100497.86;;;29.43;38.95
37776;BME280;23614;33.774;130.514;2022-09-23T03:54:21;100494.55;;;29.57;38.88
37776;BME280;23614;33.774;130.514;2022-09-23T03:56:47;100491.25;;;29.32;38.80
37776;BME280;23614;33.774;130.514;2022-09-23T03:59:13;100495.84;;;29.38;38.58
37776;BME280;23614;33.774;130.514;2022-09-23T04:01:39;100495.06;;;29.64;37.59
37776;BME280;23614;33.774;130.514;2022-09-23T04:04:05;100498.45;;;29.44;38.03
37776;BME280;23614;33.774;130.514;2022-09-23T04:06:32;100497.08;;;29.48;37.77
37776;BME280;23614;33.774;130.514;2022-09-23T04:08:57;100499.70;;;29.62;37.70
37776;BME280;23614;33.774;130.514;2022-09-23T04:11:23;100498.87;;;29.32;38.24
37776;BME280;23614;33.774;130.514;2022-09-23T04:13:49;100497.32;;;29.06;38.44
37776;BME280;23614;33.774;130.514;2022-09-23T04:16:15;100495.88;;;29.02;38.97
37776;BME280;23614;33.774;130.514;2022-09-23T04:18:41;100494.55;;;29.19;38.52
37776;BME280;23614;33.774;130.514;2022-09-23T04:21:07;100492.11;;;28.35;39.70
37776;BME280;23614;33.774;130.514;2022-09-23T04:23:33;100489.25;;;29.20;38.46
37776;BME280;23614;33.774;130.514;2022-09-23T04:25:59;100489.73;;;28.57;39.02
37776;BME280;23614;33.774;130.514;2022-09-23T04:28:25;100490.25;;;29.26;38.32
37776;BME280;23614;33.774;130.514;2022-09-23T04:30:51;100491.90;;;27.36;41.09
37776;BME280;23614;33.774;130.514;2022-09-23T04:33:17;100490.76;;;27.68;40.88
37776;BME280;23614;33.774;130.514;2022-09-23T04:35:43;100497.91;;;27.49;41.74
37776;BME280;23614;33.774;130.514;2022-09-23T04:38:10;100495.58;;;28.45;40.27
37776;BME280;23614;33.774;130.514;2022-09-23T04:40:36;100495.04;;;28.84;39.81
37776;BME280;23614;33.774;130.514;2022-09-23T04:43:02;100494.92;;;27.78;41.54
37776;BME280;23614;33.774;130.514;2022-09-23T04:45:27;100490.82;;;28.19;41.04
37776;BME280;23614;33.774;130.514;2022-09-23T04:47:53;100490.89;;;28.85;39.93
37776;BME280;23614;33.774;130.514;2022-09-23T04:50:19;100488.41;;;29.05;39.18
37776;BME280;23614;33.774;130.514;2022-09-23T04:52:45;100488.01;;;28.92;39.50
37776;BME280;23614;33.774;130.514;2022-09-23T04:55:11;100486.47;;;28.82;39.95
37776;BME280;23614;33.774;130.514;2022-09-23T04:57:37;100487.19;;;28.92;40.08
37776;BME280;23614;33.774;130.514;2022-09-23T05:00:04;100481.45;;;29.03;39.60
37776;BME280;23614;33.774;130.514;2022-09-23T05:02:29;100484.62;;;28.13;40.48
37776;BME280;23614;33.774;130.514;2022-09-23T05:04:55;100484.71;;;28.76;39.87
37776;BME280;23614;33.774;130.514;2022-09-23T05:07:21;100485.72;;;28.65;40.46
37776;BME280;23614;33.774;130.514;2022-09-23T05:09:47;100487.82;;;29.18;39.03
37776;BME280;23614;33.774;130.514;2022-09-23T05:12:13;100489.99;;;29.04;39.27
37776;BME280;23614;33.774;130.514;2022-09-23T05:14:39;100490.95;;;28.82;39.71
37776;BME280;23614;33.774;130.514;2022-09-23T05:17:06;100491.67;;;28.73;40.09
37776;BME280;23614;33.774;130.514;2022-09-23T05:19:31;100495.78;;;28.21;40.91
37776;BME280;23614;33.774;130.514;2022-09-23T05:21:57;100498.81;;;28.59;40.69
37776;BME280;23614;33.774;130.514;2022-09-23T05:24:23;100503.20;;;27.48;42.10
37776;BME280;23614;33.774;130.514;2022-09-23T05:26:49;100500.31;;;27.63;42.08
37776;BME280;23614;33.774;130.514;2022-09-23T05:29:15;100496.66;;;28.23;41.65
37776;BME280;23614;33.774;130.514;2022-09-23T05:32:46;100498.28;;;27.42;43.38
37776;BME280;23614;33.774;130.514;2022-09-23T05:34:07;100499.11;;;27.85;42.81
37776;BME280;23614;33.774;130.514;2022-09-23T05:36:34;100495.22;;;27.81;42.87
37776;BME280;23614;33.774;130.514;2022-09-23T05:41:39;100492.24;;;27.89;42.66
37776;BME280;23614;33.774;130.514;2022-09-23T05:43:52;100490.44;;;28.01;42.37
37776;BME280;23614;33.774;130.514;2022-09-23T05:46:18;100493.11;;;27.90;42.27
37776;BME280;23614;33.774;130.514;2022-09-23T05:48:43;100490.65;;;27.30;43.11
37776;BME280;23614;33.774;130.514;2022-09-23T05:51:13;100480.78;;;27.83;42.08
37776;BME280;23614;33.774;130.514;2022-09-23T05:53:34;100477.09;;;27.84;41.90
37776;BME280;23614;33.774;130.514;2022-09-23T05:56:01;100475.85;;;28.27;41.47
37776;BME280;23614;33.774;130.514;2022-09-23T05:58:27;100467.82;;;27.98;41.26
37776;BME280;23614;33.774;130.514;2022-09-23T06:00:52;100467.57;;;28.38;41.20
37776;BME280;23614;33.774;130.514;2022-09-23T06:03:19;100469.89;;;28.55;40.42
37776;BME280;23614;33.774;130.514;2022-09-23T06:05:45;100468.80;;;28.34;40.87
37776;BME280;23614;33.774;130.514;2022-09-23T06:08:11;100468.90;;;27.91;41.85
37776;BME280;23614;33.774;130.514;2022-09-23T06:10:37;100468.27;;;27.96;42.20
37776;BME280;23614;33.774;130.514;2022-09-23T06:13:03;100470.12;;;27.88;42.53
37776;BME280;23614;33.774;130.514;2022-09-23T06:15:29;100470.27;;;27.90;42.40
37776;BME280;23614;33.774;130.514;2022-09-23T06:17:55;100470.19;;;28.73;41.20
37776;BME280;23614;33.774;130.514;2022-09-23T06:20:20;100468.53;;;28.54;41.61
37776;BME280;23614;33.774;130.514;2022-09-23T06:22:46;100463.76;;;28.27;42.37
37776;BME280;23614;33.774;130.514;2022-09-23T06:25:13;100460.24;;;28.41;42.01
37776;BME280;23614;33.774;130.514;2022-09-23T06:27:39;100466.40;;;27.63;43.28
37776;BME280;23614;33.774;130.514;2022-09-23T06:30:06;100466.88;;;27.56;43.09
37776;BME280;23614;33.774;130.514;2022-09-23T06:32:31;100470.55;;;27.63;43.44
37776;BME280;23614;33.774;130.514;2022-09-23T06:34:57;100465.78;;;27.29;44.09
37776;BME280;23614;33.774;130.514;2022-09-23T06:37:23;100459.29;;;27.57;43.42
37776;BME280;23614;33.774;130.514;2022-09-23T06:39:49;100461.84;;;27.47;43.77
37776;BME280;23614;33.774;130.514;2022-09-23T06:42:15;100460.10;;;27.65;43.46
37776;BME280;23614;33.774;130.514;2022-09-23T06:44:42;100464.38;;;27.42;43.72
37776;BME280;23614;33.774;130.514;2022-09-23T06:47:07;100467.95;;;27.50;43.97
37776;BME280;23614;33.774;130.514;2022-09-23T06:49:33;100472.40;;;27.33;44.30
37776;BME280;23614;33.774;130.514;2022-09-23T06:51:59;100473.19;;;27.01;44.69
37776;BME280;23614;33.774;130.514;2022-09-23T06:54:25;100472.71;;;26.66;45.01
37776;BME280;23614;33.774;130.514;2022-09-23T06:56:51;100470.84;;;26.13;45.64
37776;BME280;23614;33.774;130.514;2022-09-23T06:59:17;100471.60;;;26.46;45.54
37776;BME280;23614;33.774;130.514;2022-09-23T07:01:43;100473.36;;;26.53;45.68
37776;BME280;23614;33.774;130.514;2022-09-23T07:04:09;100473.36;;;27.01;45.16
37776;BME280;23614;33.774;130.514;2022-09-23T07:06:35;100469.75;;;26.64;45.31
37776;BME280;23614;33.774;130.514;2022-09-23T07:09:00;100466.21;;;26.61;45.59
37776;BME280;23614;33.774;130.514;2022-09-23T07:11:27;100468.47;;;26.89;45.42
37776;BME280;23614;33.774;130.514;2022-09-23T07:13:53;100469.68;;;26.96;45.16
37776;BME280;23614;33.774;130.514;2022-09-23T07:16:18;100465.82;;;26.80;45.15
37776;BME280;23614;33.774;130.514;2022-09-23T07:18:45;100461.33;;;26.68;45.26
37776;BME280;23614;33.774;130.514;2022-09-23T07:21:12;100463.04;;;26.34;45.81
37776;BME280;23614;33.774;130.514;2022-09-23T07:23:37;100464.59;;;26.60;45.02
37776;BME280;23614;33.774;130.514;2022-09-23T07:26:03;100462.50;;;26.15;46.26
37776;BME280;23614;33.774;130.514;2022-09-23T07:28:28;100463.75;;;26.16;46.24
37776;BME280;23614;33.774;130.514;2022-09-23T07:30:55;100467.11;;;26.34;46.12
37776;BME280;23614;33.774;130.514;2022-09-23T07:33:21;100472.47;;;26.46;45.86
37776;BME280;23614;33.774;130.514;2022-09-23T07:35:47;100467.79;;;26.26;46.41
37776;BME280;23614;33.774;130.514;2022-09-23T07:38:13;100471.48;;;26.49;46.11
37776;BME280;23614;33.774;130.514;2022-09-23T07:40:40;100470.49;;;26.59;45.91
37776;BME280;23614;33.774;130.514;2022-09-23T07:43:05;100476.95;;;26.52;46.28
37776;BME280;23614;33.774;130.514;2022-09-23T07:45:31;100482.65;;;25.97;46.54
37776;BME280;23614;33.774;130.514;2022-09-23T07:47:57;100482.32;;;26.50;46.04
37776;BME280;23614;33.774;130.514;2022-09-23T07:50:23;100479.07;;;26.54;45.55
37776;BME280;23614;33.774;130.514;2022-09-23T07:52:49;100478.35;;;26.43;45.80
37776;BME280;23614;33.774;130.514;2022-09-23T07:55:15;100472.31;;;26.22;46.09
37776;BME280;23614;33.774;130.514;2022-09-23T07:57:41;100470.12;;;26.56;45.95
37776;BME280;23614;33.774;130.514;2022-09-23T08:00:08;100467.25;;;26.07;46.59
37776;BME280;23614;33.774;130.514;2022-09-23T08:02:33;100467.80;;;26.63;45.72
37776;BME280;23614;33.774;130.514;2022-09-23T08:04:58;100469.25;;;26.34;46.43
37776;BME280;23614;33.774;130.514;2022-09-23T08:07:25;100473.91;;;26.12;46.55
37776;BME280;23614;33.774;130.514;2022-09-23T08:09:52;100470.57;;;26.30;46.28
37776;BME280;23614;33.774;130.514;2022-09-23T08:12:18;100472.22;;;26.37;46.21
37776;BME280;23614;33.774;130.514;2022-09-23T08:14:43;100477.70;;;25.94;46.77
37776;BME280;23614;33.774;130.514;2022-09-23T08:17:12;100474.15;;;26.30;46.54
37776;BME280;23614;33.774;130.514;2022-09-23T08:19:34;100473.90;;;26.01;46.94
37776;BME280;23614;33.774;130.514;2022-09-23T08:22:01;100474.94;;;26.25;46.85
37776;BME280;23614;33.774;130.514;2022-09-23T08:24:27;100484.43;;;25.91;47.59
37776;BME280;23614;33.774;130.514;2022-09-23T08:26:53;100484.57;;;25.99;47.70
37776;BME280;23614;33.774;130.514;2022-09-23T08:29:20;100490.19;;;25.54;48.84
37776;BME280;23614;33.774;130.514;2022-09-23T08:31:45;100484.59;;;25.50;48.61
37776;BME280;23614;33.774;130.514;2022-09-23T08:34:11;100486.26;;;25.90;48.37
37776;BME280;23614;33.774;130.514;2022-09-23T08:36:37;100489.23;;;25.97;48.10
37776;BME280;23614;33.774;130.514;2022-09-23T08:39:04;100497.60;;;26.09;47.71
37776;BME280;23614;33.774;130.514;2022-09-23T08:41:36;100501.47;;;25.91;48.28
37776;BME280;23614;33.774;130.514;2022-09-23T08:44:00;100502.01;;;25.81;48.75
37776;BME280;23614;33.774;130.514;2022-09-23T08:46:25;100506.52;;;25.87;48.76
37776;BME280;23614;33.774;130.514;2022-09-23T08:48:48;100514.66;;;25.09;50.59
37776;BME280;23614;33.774;130.514;2022-09-23T08:51:14;100509.44;;;25.66;49.50
37776;BME280;23614;33.774;130.514;2022-09-23T08:53:39;100508.58;;;25.93;48.89
37776;BME280;23614;33.774;130.514;2022-09-23T08:56:09;100508.99;;;25.70;49.33
37776;BME280;23614;33.774;130.514;2022-09-23T08:58:39;100507.91;;;25.98;48.85
37776;BME280;23614;33.774;130.514;2022-09-23T09:01:05;100515.70;;;25.93;49.14
37776;BME280;23614;33.774;130.514;2022-09-23T09:03:29;100513.82;;;25.93;49.05
37776;BME280;23614;33.774;130.514;2022-09-23T09:05:49;100515.26;;;25.73;49.63
37776;BME280;23614;33.774;130.514;2022-09-23T09:08:19;100516.08;;;25.72;49.57
37776;BME280;23614;33.774;130.514;2022-09-23T09:10:43;100516.96;;;26.05;48.86
37776;BME280;23614;33.774;130.514;2022-09-23T09:13:14;100515.16;;;26.00;49.00
37776;BME280;23614;33.774;130.514;2022-09-23T09:15:50;100511.14;;;26.09;48.59
37776;BME280;23614;33.774;130.514;2022-09-23T09:18:09;100514.73;;;26.03;48.87
37776;BME280;23614;33.774;130.514;2022-09-23T09:20:50;100520.17;;;25.79;49.33
37776;BME280;23614;33.774;130.514;2022-09-23T09:22:54;100518.27;;;26.12;48.61
37776;BME280;23614;33.774;130.514;2022-09-23T09:25:24;100532.47;;;25.66;48.91
37776;BME280;23614;33.774;130.514;2022-09-23T09:28:42;100529.10;;;25.17;49.64
37776;BME280;23614;33.774;130.514;2022-09-23T09:30:12;100524.19;;;25.03;49.84
37776;BME280;23614;33.774;130.514;2022-09-23T09:32:40;100528.24;;;25.35;49.20
37776;BME280;23614;33.774;130.514;2022-09-23T09:35:06;100535.02;;;25.73;48.65
37776;BME280;23614;33.774;130.514;2022-09-23T09:37:32;100533.12;;;25.35;49.01
37776;BME280;23614;33.774;130.514;2022-09-23T09:39:53;100537.52;;;25.24;49.20
37776;BME280;23614;33.774;130.514;2022-09-23T09:42:22;100531.89;;;25.53;48.50
37776;BME280;23614;33.774;130.514;2022-09-23T09:44:49;100532.89;;;25.23;49.53
37776;BME280;23614;33.774;130.514;2022-09-23T09:47:23;100537.11;;;25.40;48.86
37776;BME280;23614;33.774;130.514;2022-09-23T09:49:45;100539.56;;;25.21;49.30
37776;BME280;23614;33.774;130.514;2022-09-23T09:52:21;100535.42;;;25.11;49.86
37776;BME280;23614;33.774;130.514;2022-09-23T09:54:29;100530.70;;;25.00;50.06
37776;BME280;23614;33.774;130.514;2022-09-23T09:56:55;100531.43;;;25.43;49.25
37776;BME280;23614;33.774;130.514;2022-09-23T09:59:26;100537.72;;;25.40;49.39
37776;BME280;23614;33.774;130.514;2022-09-23T10:01:47;100540.23;;;25.76;48.61
37776;BME280;23614;33.774;130.514;2022-09-23T10:04:21;100549.57;;;24.19;50.56
37776;BME280;23614;33.774;130.514;2022-09-23T10:06:39;100552.63;;;25.05;48.94
37776;BME280;23614;33.774;130.514;2022-09-23T10:09:15;100554.29;;;25.34;48.13
37776;BME280;23614;33.774;130.514;2022-09-23T10:11:32;100561.41;;;24.74;48.50
37776;BME280;23614;33.774;130.514;2022-09-23T10:14:09;100566.21;;;25.23;47.66
37776;BME280;23614;33.774;130.514;2022-09-23T10:16:23;100565.20;;;25.09;47.76
37776;BME280;23614;33.774;130.514;2022-09-23T10:18:50;100561.59;;;24.60;48.64
37776;BME280;23614;33.774;130.514;2022-09-23T10:21:16;100565.12;;;25.40;47.64
37776;BME280;23614;33.774;130.514;2022-09-23T10:23:43;100572.49;;;24.80;49.04
37776;BME280;23614;33.774;130.514;2022-09-23T10:26:08;100576.69;;;25.08;48.82
37776;BME280;23614;33.774;130.514;2022-09-23T10:28:41;100579.07;;;24.68;49.36
37776;BME280;23614;33.774;130.514;2022-09-23T10:31:08;100587.12;;;24.20;50.57
37776;BME280;23614;33.774;130.514;2022-09-23T10:33:27;100588.39;;;24.83;49.24
37776;BME280;23614;33.774;130.514;2022-09-23T10:35:54;100583.60;;;24.84;48.89
37776;BME280;23614;33.774;130.514;2022-09-23T10:38:17;100578.93;;;24.86;48.41
37776;BME280;23614;33.774;130.514;2022-09-23T10:40:51;100578.25;;;24.34;49.19
37776;BME280;23614;33.774;130.514;2022-09-23T10:43:26;100582.24;;;24.31;49.05
37776;BME280;23614;33.774;130.514;2022-09-23T10:45:38;100590.84;;;24.18;49.14
37776;BME280;23614;33.774;130.514;2022-09-23T10:48:06;100594.92;;;23.86;49.31
37776;BME280;23614;33.774;130.514;2022-09-23T10:50:37;100593.95;;;24.56;47.99
37776;BME280;23614;33.774;130.514;2022-09-23T10:53:02;100599.40;;;24.30;48.01
37776;BME280;23614;33.774;130.514;2022-09-23T10:55:29;100598.25;;;24.47;46.96
37776;BME280;23614;33.774;130.514;2022-09-23T10:57:58;100600.91;;;24.21;46.89
37776;BME280;23614;33.774;130.514;2022-09-23T11:00:21;100602.53;;;24.41;46.69
37776;BME280;23614;33.774;130.514;2022-09-23T11:02:48;100602.60;;;24.58;46.14
37776;BME280;23614;33.774;130.514;2022-09-23T11:05:28;100609.15;;;24.50;45.33
37776;BME280;23614;33.774;130.514;2022-09-23T11:07:33;100607.39;;;24.40;45.51
37776;BME280;23614;33.774;130.514;2022-09-23T11:10:27;100616.44;;;24.47;45.75
37776;BME280;23614;33.774;130.514;2022-09-23T11:12:26;100618.02;;;24.90;44.91
37776;BME280;23614;33.774;130.514;2022-09-23T11:14:58;100623.84;;;24.55;45.26
37776;BME280;23614;33.774;130.514;2022-09-23T11:17:26;100628.59;;;24.45;45.09
37776;BME280;23614;33.774;130.514;2022-09-23T11:19:53;100634.56;;;24.45;45.61
37776;BME280;23614;33.774;130.514;2022-09-23T11:25:45;100631.05;;;24.70;44.00
37776;BME280;23614;33.774;130.514;2022-09-23T11:27:03;100634.19;;;24.51;44.05
37776;BME280;23614;33.774;130.514;2022-09-23T11:29:49;100630.76;;;24.61;44.05
37776;BME280;23614;33.774;130.514;2022-09-23T11:31:58;100630.10;;;24.03;45.72
37776;BME280;23614;33.774;130.514;2022-09-23T11:34:30;100628.81;;;24.74;44.38
37776;BME280;23614;33.774;130.514;2022-09-23T11:36:47;100632.47;;;24.57;44.89
37776;BME280;23614;33.774;130.514;2022-09-23T11:39:11;100625.72;;;24.96;44.49
37776;BME280;23614;33.774;130.514;2022-09-23T11:41:35;100620.45;;;24.65;45.15
37776;BME280;23614;33.774;130.514;2022-09-23T11:44:05;100622.06;;;24.74;45.30
37776;BME280;23614;33.774;130.514;2022-09-23T11:46:32;100625.47;;;24.61;45.43
37776;BME280;23614;33.774;130.514;2022-09-23T11:48:54;100630.79;;;24.81;45.29
37776;BME280;23614;33.774;130.514;2022-09-23T11:51:20;100627.35;;;24.95;45.18
37776;BME280;23614;33.774;130.514;2022-09-23T11:53:46;100629.46;;;24.39;46.12
37776;BME280;23614;33.774;130.514;2022-09-23T11:56:14;100627.36;;;24.83;45.38
37776;BME280;23614;33.774;130.514;2022-09-23T11:58:38;100626.96;;;25.30;44.56
37776;BME280;23614;33.774;130.514;2022-09-23T12:01:04;100627.29;;;25.01;44.97
37776;BME280;23614;33.774;130.514;2022-09-23T12:03:37;100631.88;;;25.19;44.68
37776;BME280;23614;33.774;130.514;2022-09-23T12:05:58;100631.34;;;25.07;44.87
37776;BME280;23614;33.774;130.514;2022-09-23T12:08:25;100631.34;;;25.18;44.73
37776;BME280;23614;33.774;130.514;2022-09-23T12:10:51;100638.69;;;25.26;44.95
37776;BME280;23614;33.774;130.514;2022-09-23T12:13:16;100633.47;;;24.83;45.80
37776;BME280;23614;33.774;130.514;2022-09-23T12:15:50;100640.25;;;25.34;45.10
37776;BME280;23614;33.774;130.514;2022-09-23T12:18:17;100636.32;;;25.30;45.09
37776;BME280;23614;33.774;130.514;2022-09-23T12:20:41;100638.91;;;25.09;45.20
37776;BME280;23614;33.774;130.514;2022-09-23T12:23:05;100640.69;;;25.36;44.94
37776;BME280;23614;33.774;130.514;2022-09-23T12:25:36;100639.66;;;25.37;44.93
37776;BME280;23614;33.774;130.514;2022-09-23T12:27:48;100630.76;;;24.91;45.72